Time;durP1;ratioP1;P1;durP2;ratioP2;P2;SDS_P1;SDS_P2;PMS_P1;PMS_P2;Temp;Humidity;BMP_temperature;BMP_pressure;BME280_temperature;BME280_humidity;BME280_pressure;Samples;Min_cycle;Max_cycle;Signal;HPM_P1;HPM_P2
2021/07/23 00:00:40;;;;;;;1.92;1.83;;;18.10;81.50;;;;;;5047136;28;20186;-76
2021/07/23 00:03:06;;;;;;;1.25;1.25;;;18.10;81.40;;;;;;5045334;28;20242;-75
2021/07/23 00:05:32;;;;;;;2.03;1.95;;;18.00;81.30;;;;;;5044731;28;20188;-76
2021/07/23 00:07:58;;;;;;;1.38;1.38;;;18.00;81.40;;;;;;5045750;28;20221;-76
2021/07/23 00:10:23;;;;;;;1.23;1.13;;;18.00;81.10;;;;;;5045674;28;21016;-76
2021/07/23 00:12:49;;;;;;;1.60;1.50;;;18.00;81.40;;;;;;5043219;28;20274;-76
2021/07/23 00:15:15;;;;;;;1.35;1.35;;;17.90;81.60;;;;;;5045528;28;20199;-76
2021/07/23 00:17:41;;;;;;;1.63;1.52;;;17.90;81.50;;;;;;5045380;28;20196;-76
2021/07/23 00:20:07;;;;;;;2.92;1.70;;;17.90;81.60;;;;;;5045965;28;20179;-76
2021/07/23 00:22:33;;;;;;;1.63;1.52;;;17.90;81.80;;;;;;5048787;28;20230;-76
2021/07/23 00:24:59;;;;;;;2.25;1.67;;;17.90;82.30;;;;;;5048290;28;20179;-76
2021/07/23 00:27:25;;;;;;;1.55;1.45;;;17.80;82.20;;;;;;5049688;28;20236;-76
2021/07/23 00:29:50;;;;;;;1.67;1.60;;;17.80;82.30;;;;;;5050580;28;20175;-76
2021/07/23 00:32:16;;;;;;;4.13;1.40;;;17.80;82.40;;;;;;5049181;28;20213;-76
2021/07/23 00:34:41;;;;;;;1.60;1.60;;;17.70;82.50;;;;;;5048679;28;20237;-76
2021/07/23 00:37:07;;;;;;;1.50;1.50;;;17.70;82.60;;;;;;5049249;28;20204;-75
2021/07/23 00:39:33;;;;;;;1.38;1.38;;;17.70;82.80;;;;;;5048755;28;20619;-76
2021/07/23 00:41:58;;;;;;;2.38;1.73;;;17.70;83.00;;;;;;5048699;28;20232;-76
2021/07/23 00:44:24;;;;;;;1.90;1.80;;;17.60;83.20;;;;;;5051938;28;20196;-76
2021/07/23 00:46:50;;;;;;;1.98;1.45;;;17.60;83.30;;;;;;5046241;28;20199;-76
2021/07/23 00:49:16;;;;;;;1.67;1.58;;;17.60;83.10;;;;;;5049451;28;20187;-76
2021/07/23 00:51:42;;;;;;;1.42;1.25;;;17.50;83.20;;;;;;5049634;28;20183;-75
2021/07/23 00:54:10;;;;;;;1.80;1.80;;;17.50;83.20;;;;;;5049544;28;20188;-77
2021/07/23 00:56:37;;;;;;;2.30;1.90;;;17.50;83.20;;;;;;5045826;28;20211;-76
2021/07/23 00:59:03;;;;;;;1.70;1.67;;;17.40;83.30;;;;;;5049159;28;20263;-76
2021/07/23 01:01:30;;;;;;;2.10;2.00;;;17.40;83.40;;;;;;5048229;28;20237;-76
2021/07/23 01:03:56;;;;;;;1.38;1.38;;;17.40;83.50;;;;;;5046166;28;20766;-76
2021/07/23 01:06:22;;;;;;;2.75;1.52;;;17.40;83.30;;;;;;5049354;28;20187;-76
2021/07/23 01:08:48;;;;;;;2.58;1.60;;;17.40;83.20;;;;;;5047162;28;20206;-77
2021/07/23 01:11:14;;;;;;;1.52;1.42;;;17.40;83.50;;;;;;5080437;28;20192;-75
2021/07/23 01:13:41;;;;;;;1.50;1.50;;;17.40;83.30;;;;;;5047518;28;20227;-75
2021/07/23 01:16:07;;;;;;;1.73;1.63;;;17.40;83.50;;;;;;5047862;28;20643;-75
2021/07/23 01:18:33;;;;;;;1.90;1.80;;;17.40;83.70;;;;;;5048929;28;20326;-76
2021/07/23 01:21:00;;;;;;;1.40;1.40;;;17.30;83.80;;;;;;5049524;28;20182;-76
2021/07/23 01:23:33;;;;;;;1.40;1.40;;;17.30;83.80;;;;;;5048238;28;20785;-75
2021/07/23 01:26:00;;;;;;;1.35;1.35;;;17.30;83.40;;;;;;5051250;28;20195;-75
2021/07/23 01:28:32;;;;;;;4.85;1.73;;;17.30;83.70;;;;;;5049987;28;20185;-76
2021/07/23 01:31:04;;;;;;;1.35;1.35;;;17.30;83.50;;;;;;5048061;28;20681;-75
2021/07/23 01:33:30;;;;;;;1.38;1.33;;;17.30;84.00;;;;;;5048039;28;20195;-76
2021/07/23 01:35:57;;;;;;;1.30;1.30;;;17.30;83.90;;;;;;5048138;28;20187;-75
2021/07/23 01:38:25;;;;;;;1.75;1.65;;;17.30;84.00;;;;;;5049001;28;20258;-75
2021/07/23 01:40:53;;;;;;;1.60;1.60;;;17.20;84.10;;;;;;5048768;28;20179;-75
2021/07/23 01:43:20;;;;;;;1.55;1.40;;;17.20;84.30;;;;;;5075976;28;20302;-75
2021/07/23 01:45:45;;;;;;;1.63;1.33;;;17.20;84.40;;;;;;5047711;28;20194;-74
2021/07/23 01:48:11;;;;;;;1.40;1.30;;;17.20;84.60;;;;;;5048178;28;20286;-74
2021/07/23 01:50:37;;;;;;;1.65;1.60;;;17.10;84.80;;;;;;5047544;28;20187;-75
2021/07/23 01:53:04;;;;;;;2.33;1.52;;;17.10;85.00;;;;;;5045185;28;20242;-76
2021/07/23 01:55:30;;;;;;;1.20;1.20;;;17.00;85.60;;;;;;5047832;28;20183;-76
2021/07/23 01:57:55;;;;;;;1.58;1.58;;;17.00;85.50;;;;;;5046590;28;20202;-76
2021/07/23 02:00:21;;;;;;;1.77;1.77;;;17.00;85.60;;;;;;5051993;28;20184;-76
2021/07/23 02:02:47;;;;;;;1.63;1.45;;;16.90;86.00;;;;;;5045996;28;20212;-76
2021/07/23 02:05:13;;;;;;;1.63;1.52;;;16.90;86.00;;;;;;5052053;28;20258;-76
2021/07/23 02:07:39;;;;;;;1.77;1.30;;;16.80;86.10;;;;;;5048030;28;20184;-76
2021/07/23 02:10:06;;;;;;;1.52;1.52;;;16.80;86.20;;;;;;5046443;28;20186;-76
2021/07/23 02:12:31;;;;;;;1.92;1.90;;;16.80;86.10;;;;;;5047492;28;20196;-75
2021/07/23 02:14:57;;;;;;;1.83;1.77;;;16.70;86.00;;;;;;5046761;28;20254;-75
2021/07/23 02:17:23;;;;;;;1.50;1.50;;;16.60;86.10;;;;;;5047900;28;21100;-75
2021/07/23 02:19:49;;;;;;;1.75;1.65;;;16.60;86.30;;;;;;5047485;28;20180;-75
2021/07/23 02:22:15;;;;;;;1.38;1.30;;;16.60;86.50;;;;;;5047160;28;20642;-75
2021/07/23 02:24:41;;;;;;;1.40;1.40;;;16.60;86.30;;;;;;5047994;28;20253;-75
2021/07/23 02:27:06;;;;;;;1.25;1.25;;;16.50;86.60;;;;;;5047626;28;20623;-75
2021/07/23 02:29:32;;;;;;;1.65;1.65;;;16.50;86.60;;;;;;5046585;28;20188;-75
2021/07/23 02:31:57;;;;;;;1.88;1.77;;;16.40;86.60;;;;;;5046622;28;20270;-74
2021/07/23 02:34:23;;;;;;;2.03;1.92;;;16.40;86.70;;;;;;5046537;28;20285;-75
2021/07/23 02:36:49;;;;;;;2.00;1.75;;;16.40;86.60;;;;;;5047333;28;20256;-74
2021/07/23 02:39:15;;;;;;;1.60;1.60;;;16.40;86.60;;;;;;5047415;28;20219;-75
2021/07/23 02:41:41;;;;;;;1.40;1.40;;;16.40;86.70;;;;;;5046141;28;20270;-75
2021/07/23 02:44:07;;;;;;;1.58;1.48;;;16.40;86.90;;;;;;5047510;28;20242;-74
2021/07/23 02:46:33;;;;;;;4.57;1.98;;;16.30;87.40;;;;;;5045987;28;20183;-75
2021/07/23 02:48:58;;;;;;;1.95;1.85;;;16.30;87.00;;;;;;5044529;28;20219;-75
2021/07/23 02:51:24;;;;;;;3.03;1.80;;;16.20;86.80;;;;;;5046668;28;20191;-75
2021/07/23 02:53:50;;;;;;;1.45;1.38;;;16.20;87.00;;;;;;5047705;28;20218;-76
2021/07/23 02:56:15;;;;;;;1.38;1.38;;;16.20;87.30;;;;;;5045841;28;20207;-75
2021/07/23 02:58:42;;;;;;;1.60;1.50;;;16.20;87.10;;;;;;5047106;28;20263;-75
2021/07/23 03:01:09;;;;;;;1.70;1.60;;;16.10;87.20;;;;;;5044876;28;20187;-74
2021/07/23 03:03:35;;;;;;;1.83;1.70;;;16.10;87.30;;;;;;5046273;28;20247;-74
2021/07/23 03:06:01;;;;;;;1.40;1.40;;;16.10;87.20;;;;;;5080899;28;20180;-75
2021/07/23 03:08:28;;;;;;;2.58;1.67;;;16.10;87.40;;;;;;5046060;28;20959;-75
2021/07/23 03:10:54;;;;;;;1.30;1.30;;;16.00;87.30;;;;;;5044244;28;20191;-74
2021/07/23 03:13:20;;;;;;;1.42;1.42;;;16.00;87.40;;;;;;5046826;28;20265;-75
2021/07/23 03:15:45;;;;;;;2.25;2.05;;;16.00;87.60;;;;;;5046510;28;20229;-75
2021/07/23 03:18:11;;;;;;;3.05;1.55;;;16.00;87.80;;;;;;5046418;28;20187;-76
2021/07/23 03:20:38;;;;;;;1.60;1.50;;;16.00;87.90;;;;;;5046890;28;20260;-75
2021/07/23 03:23:04;;;;;;;1.90;1.77;;;15.90;87.80;;;;;;5045252;28;20219;-75
2021/07/23 03:25:30;;;;;;;1.40;1.40;;;15.90;87.60;;;;;;5046409;28;20236;-75
2021/07/23 03:27:56;;;;;;;1.50;1.50;;;15.90;87.60;;;;;;5045488;28;20215;-75
2021/07/23 03:30:22;;;;;;;1.75;1.65;;;15.90;87.60;;;;;;5046852;28;20297;-75
2021/07/23 03:32:47;;;;;;;1.80;1.70;;;15.90;87.50;;;;;;5050036;28;20218;-74
2021/07/23 03:35:13;;;;;;;1.65;1.55;;;16.00;87.50;;;;;;5044962;28;20253;-75
2021/07/23 03:37:39;;;;;;;1.30;1.30;;;16.00;87.40;;;;;;5045321;28;20269;-75
2021/07/23 03:40:06;;;;;;;6.57;1.63;;;16.00;87.40;;;;;;5045970;28;20699;-75
2021/07/23 03:42:32;;;;;;;1.52;1.45;;;16.00;87.20;;;;;;5046261;28;20210;-75
2021/07/23 03:44:58;;;;;;;1.77;1.67;;;16.00;87.20;;;;;;5043441;28;20592;-75
2021/07/23 03:47:24;;;;;;;1.30;1.30;;;16.00;87.10;;;;;;5046324;28;20599;-75
2021/07/23 03:49:50;;;;;;;1.83;1.73;;;16.10;87.10;;;;;;5046232;28;20191;-75
2021/07/23 03:52:15;;;;;;;1.17;1.17;;;16.10;87.00;;;;;;5046948;28;20187;-74
2021/07/23 03:54:41;;;;;;;1.67;1.58;;;16.10;87.00;;;;;;5040529;28;20187;-76
2021/07/23 03:57:07;;;;;;;1.27;1.27;;;16.10;87.20;;;;;;5047958;28;20178;-74
2021/07/23 03:59:33;;;;;;;2.15;1.60;;;16.20;87.30;;;;;;5049635;28;20191;-75
2021/07/23 04:01:59;;;;;;;2.53;1.20;;;16.20;87.40;;;;;;5048287;28;20180;-75
2021/07/23 04:04:25;;;;;;;1.27;1.25;;;16.20;87.30;;;;;;5049818;28;20252;-74
2021/07/23 04:07:00;;;;;;;1.50;1.40;;;16.20;87.20;;;;;;5047039;28;20213;-76
2021/07/23 04:09:29;;;;;;;1.52;1.42;;;16.20;86.80;;;;;;5049229;28;20803;-77
2021/07/23 04:11:57;;;;;;;1.70;1.60;;;16.30;86.80;;;;;;5050315;28;20184;-76
2021/07/23 04:14:23;;;;;;;1.52;1.52;;;16.30;87.00;;;;;;5048596;28;20191;-74
2021/07/23 04:16:50;;;;;;;1.23;1.23;;;16.40;87.20;;;;;;5050454;28;20249;-76
2021/07/23 04:19:16;;;;;;;1.58;1.58;;;16.40;87.00;;;;;;5048412;28;20625;-77
2021/07/23 04:21:42;;;;;;;1.42;1.38;;;16.40;86.90;;;;;;5048939;28;20680;-76
2021/07/23 04:24:08;;;;;;;2.70;1.80;;;16.40;87.10;;;;;;5051277;28;20223;-73
2021/07/23 04:26:34;;;;;;;2.50;1.45;;;16.50;87.00;;;;;;5044664;28;20547;-74
2021/07/23 04:29:00;;;;;;;1.85;1.73;;;16.50;87.10;;;;;;5047640;28;20190;-73
2021/07/23 04:31:27;;;;;;;1.90;1.80;;;16.50;87.20;;;;;;5048100;28;20569;-74
2021/07/23 04:33:55;;;;;;;1.70;1.63;;;16.50;86.80;;;;;;5048140;28;20266;-72
2021/07/23 04:36:21;;;;;;;1.88;1.77;;;16.60;87.00;;;;;;5050241;28;20192;-73
2021/07/23 04:38:46;;;;;;;1.50;1.50;;;16.60;86.80;;;;;;5050949;28;20265;-72
2021/07/23 04:41:12;;;;;;;2.03;2.00;;;16.70;87.00;;;;;;5048971;28;20215;-72
2021/07/23 04:43:39;;;;;;;2.08;2.00;;;16.70;86.90;;;;;;5043640;28;20227;-73
2021/07/23 04:46:06;;;;;;;1.70;1.60;;;16.80;86.60;;;;;;5048757;28;20821;-72
2021/07/23 04:48:32;;;;;;;1.90;1.77;;;16.80;86.70;;;;;;5049410;28;20180;-73
2021/07/23 04:51:01;;;;;;;1.85;1.75;;;16.80;87.10;;;;;;5050158;28;20576;-73
2021/07/23 04:53:26;;;;;;;5.03;1.50;;;16.90;86.40;;;;;;5050128;28;20191;-73
2021/07/23 04:55:54;;;;;;;2.15;2.05;;;16.90;86.60;;;;;;5049549;28;20255;-73
2021/07/23 04:58:20;;;;;;;3.53;2.28;;;16.90;86.40;;;;;;5047042;28;20188;-73
2021/07/23 05:00:45;;;;;;;1.85;1.75;;;17.00;86.20;;;;;;5046957;28;20672;-73
2021/07/23 05:03:12;;;;;;;4.75;1.80;;;17.00;86.20;;;;;;5046777;28;20214;-73
2021/07/23 05:05:41;;;;;;;1.73;1.73;;;17.10;86.10;;;;;;5043908;28;20187;-74
2021/07/23 05:08:09;;;;;;;1.95;1.95;;;17.20;85.80;;;;;;5045257;28;20741;-74
2021/07/23 05:10:35;;;;;;;2.33;2.13;;;17.20;85.80;;;;;;5040759;28;20749;-73
2021/07/23 05:13:03;;;;;;;2.05;2.03;;;17.20;85.80;;;;;;5046839;28;20739;-72
2021/07/23 05:15:28;;;;;;;2.95;2.75;;;17.30;85.70;;;;;;5047555;28;20275;-73
2021/07/23 05:17:54;;;;;;;3.97;2.42;;;17.30;85.70;;;;;;5047324;28;20270;-74
2021/07/23 05:20:20;;;;;;;2.97;2.72;;;17.40;85.60;;;;;;5046043;28;20238;-73
2021/07/23 05:22:48;;;;;;;2.40;2.25;;;17.40;85.50;;;;;;5046366;28;20204;-73
2021/07/23 05:25:13;;;;;;;2.13;2.05;;;17.50;85.00;;;;;;5047687;28;20219;-72
2021/07/23 05:27:39;;;;;;;2.95;2.72;;;17.60;84.70;;;;;;5046654;28;20191;-72
2021/07/23 05:30:06;;;;;;;3.58;2.17;;;17.60;84.60;;;;;;5049052;28;20679;-72
2021/07/23 05:32:31;;;;;;;2.80;2.60;;;17.70;84.50;;;;;;5049222;28;20181;-72
2021/07/23 05:34:57;;;;;;;4.55;2.53;;;17.70;84.60;;;;;;5047154;28;20971;-73
2021/07/23 05:37:23;;;;;;;2.70;2.50;;;17.80;84.40;;;;;;5050626;28;20175;-73
2021/07/23 05:39:48;;;;;;;2.85;2.67;;;17.80;84.30;;;;;;5047485;28;20183;-73
2021/07/23 05:42:14;;;;;;;2.28;2.20;;;17.90;84.20;;;;;;5047704;28;20200;-72
2021/07/23 05:44:40;;;;;;;5.40;3.28;;;17.90;84.10;;;;;;5045306;28;20282;-73
2021/07/23 05:47:06;;;;;;;3.08;2.88;;;18.00;84.00;;;;;;5052599;28;20187;-73
2021/07/23 05:49:31;;;;;;;3.80;3.42;;;18.00;84.20;;;;;;5047108;28;20187;-75
2021/07/23 05:51:57;;;;;;;3.47;3.05;;;18.10;84.00;;;;;;5048836;28;20186;-73
2021/07/23 05:54:23;;;;;;;2.78;2.60;;;18.10;83.20;;;;;;5046940;28;20203;-73
2021/07/23 05:56:48;;;;;;;3.63;2.40;;;18.20;83.50;;;;;;5048367;28;20195;-72
2021/07/23 05:59:14;;;;;;;3.30;2.55;;;18.20;83.50;;;;;;5049611;28;20241;-73
2021/07/23 06:01:40;;;;;;;2.80;2.60;;;18.30;83.50;;;;;;5050847;28;20183;-72
2021/07/23 06:04:05;;;;;;;3.22;3.03;;;18.30;83.60;;;;;;5047843;28;20778;-72
2021/07/23 06:06:31;;;;;;;4.80;3.15;;;18.40;82.90;;;;;;5046799;28;20176;-72
2021/07/23 06:08:58;;;;;;;2.63;2.53;;;18.30;82.90;;;;;;5047218;28;20211;-72
2021/07/23 06:11:24;;;;;;;3.20;2.83;;;18.40;82.90;;;;;;5046477;28;20250;-73
2021/07/23 06:13:50;;;;;;;3.53;3.17;;;18.50;82.70;;;;;;5048018;28;20179;-72
2021/07/23 06:16:15;;;;;;;3.13;2.90;;;18.50;82.90;;;;;;5048107;28;20196;-72
2021/07/23 06:18:41;;;;;;;3.03;2.33;;;18.60;82.90;;;;;;5045224;28;20177;-73
2021/07/23 06:21:07;;;;;;;6.18;2.60;;;18.60;82.90;;;;;;5042002;28;20253;-72
2021/07/23 06:23:34;;;;;;;2.65;2.42;;;18.70;82.90;;;;;;5048127;28;20211;-72
2021/07/23 06:26:02;;;;;;;3.60;2.95;;;18.80;82.70;;;;;;5048563;28;20208;-73
2021/07/23 06:28:28;;;;;;;2.42;2.25;;;18.90;82.50;;;;;;5048267;28;20207;-73
2021/07/23 06:31:01;;;;;;;2.45;2.35;;;19.00;82.10;;;;;;5047918;28;20172;-72
2021/07/23 06:33:27;;;;;;;2.22;2.15;;;19.10;81.70;;;;;;5048286;28;20191;-72
2021/07/23 06:35:53;;;;;;;2.33;2.22;;;19.20;81.80;;;;;;5047959;28;20732;-73
2021/07/23 06:38:19;;;;;;;2.60;2.50;;;19.20;81.60;;;;;;5048042;28;20206;-72
2021/07/23 06:40:44;;;;;;;4.20;2.60;;;19.30;81.60;;;;;;5046892;28;20180;-72
2021/07/23 06:43:10;;;;;;;2.75;2.65;;;19.40;81.40;;;;;;5047887;28;20306;-73
2021/07/23 06:45:36;;;;;;;4.88;2.63;;;19.40;81.20;;;;;;5046400;28;20188;-72
2021/07/23 06:48:02;;;;;;;4.25;2.42;;;19.50;81.00;;;;;;5047722;28;20198;-72
2021/07/23 06:50:28;;;;;;;7.05;2.35;;;19.60;81.20;;;;;;5047858;28;20207;-72
2021/07/23 06:52:53;;;;;;;2.75;2.13;;;19.70;81.00;;;;;;5043033;28;20680;-72
2021/07/23 06:55:19;;;;;;;2.78;2.58;;;19.80;80.60;;;;;;5045786;28;21029;-72
2021/07/23 06:57:44;;;;;;;2.58;1.98;;;19.90;80.30;;;;;;5047782;28;20657;-72
2021/07/23 07:00:10;;;;;;;3.78;2.15;;;19.90;80.00;;;;;;5047926;28;20222;-72
2021/07/23 07:02:36;;;;;;;2.30;2.10;;;20.00;80.00;;;;;;5047446;28;20239;-72
2021/07/23 07:05:02;;;;;;;2.33;2.22;;;20.10;79.90;;;;;;5047284;28;20262;-72
2021/07/23 07:07:28;;;;;;;3.42;2.00;;;20.20;79.20;;;;;;5049082;28;20192;-72
2021/07/23 07:09:54;;;;;;;2.13;2.03;;;20.30;79.10;;;;;;5047323;28;20205;-72
2021/07/23 07:12:20;;;;;;;4.03;2.03;;;20.30;78.70;;;;;;5045835;28;20241;-72
2021/07/23 07:14:46;;;;;;;3.38;1.98;;;20.40;78.50;;;;;;5047267;28;20203;-72
2021/07/23 07:17:12;;;;;;;2.45;2.38;;;20.50;77.70;;;;;;5047199;28;20180;-72
2021/07/23 07:19:38;;;;;;;2.22;2.13;;;20.50;77.80;;;;;;5047431;28;20731;-72
2021/07/23 07:22:04;;;;;;;2.28;2.20;;;20.50;77.80;;;;;;5047957;28;20308;-71
2021/07/23 07:24:30;;;;;;;3.60;2.80;;;20.60;77.60;;;;;;5047136;28;20634;-71
2021/07/23 07:26:56;;;;;;;2.35;2.15;;;20.70;77.60;;;;;;5047185;28;20267;-71
2021/07/23 07:29:22;;;;;;;2.53;2.10;;;20.70;77.70;;;;;;5047012;28;20183;-73
2021/07/23 07:31:47;;;;;;;3.90;1.95;;;20.80;77.60;;;;;;5046786;28;20167;-73
2021/07/23 07:34:13;;;;;;;2.38;2.25;;;20.90;77.70;;;;;;5045928;28;20238;-70
2021/07/23 07:36:39;;;;;;;2.40;2.28;;;21.00;77.70;;;;;;5047241;28;20206;-71
2021/07/23 07:39:05;;;;;;;3.42;2.03;;;21.10;77.30;;;;;;5046835;28;20215;-73
2021/07/23 07:41:31;;;;;;;2.25;2.00;;;21.20;77.10;;;;;;5047038;28;20179;-74
2021/07/23 07:43:57;;;;;;;2.10;2.00;;;21.30;76.80;;;;;;5044688;28;20219;-74
2021/07/23 07:46:23;;;;;;;1.75;1.70;;;21.40;76.40;;;;;;5043663;28;20638;-73
2021/07/23 07:48:49;;;;;;;3.08;1.95;;;21.50;76.40;;;;;;5043451;28;20175;-74
2021/07/23 07:51:15;;;;;;;1.80;1.80;;;21.60;76.00;;;;;;5044168;28;20859;-73
2021/07/23 07:53:42;;;;;;;1.83;1.67;;;21.60;75.60;;;;;;5039765;28;20184;-71
2021/07/23 07:56:11;;;;;;;2.30;2.20;;;21.70;75.60;;;;;;5040424;28;20185;-71
2021/07/23 07:58:37;;;;;;;3.88;2.58;;;21.80;74.20;;;;;;5041675;28;20185;-73
2021/07/23 08:01:09;;;;;;;5.63;2.47;;;21.80;73.60;;;;;;5044350;28;20195;-72
2021/07/23 08:03:35;;;;;;;1.98;1.67;;;21.90;74.20;;;;;;5044217;28;20208;-73
2021/07/23 08:06:05;;;;;;;3.00;2.50;;;22.00;74.40;;;;;;5044273;28;20230;-73
2021/07/23 08:08:32;;;;;;;2.35;2.20;;;22.10;74.50;;;;;;5045393;28;20179;-72
2021/07/23 08:10:58;;;;;;;1.77;1.73;;;22.20;74.80;;;;;;5046092;28;20271;-72
2021/07/23 08:13:26;;;;;;;1.88;1.77;;;22.30;74.00;;;;;;5044372;28;20738;-72
2021/07/23 08:15:53;;;;;;;2.80;1.83;;;22.40;73.60;;;;;;5042821;28;20252;-73
2021/07/23 08:18:19;;;;;;;2.25;2.17;;;22.50;73.70;;;;;;5044393;28;20180;-72
2021/07/23 08:20:46;;;;;;;2.05;1.95;;;22.60;73.20;;;;;;5044268;28;20571;-72
2021/07/23 08:23:12;;;;;;;1.65;1.60;;;22.70;72.40;;;;;;5044045;28;20261;-73
2021/07/23 08:25:37;;;;;;;2.55;1.77;;;22.80;72.30;;;;;;5044365;28;20205;-71
2021/07/23 08:28:04;;;;;;;2.25;2.15;;;22.80;70.90;;;;;;5040940;28;20219;-73
2021/07/23 08:30:30;;;;;;;3.03;1.80;;;22.90;70.10;;;;;;5044443;28;20270;-73
2021/07/23 08:32:58;;;;;;;2.10;1.90;;;22.90;68.10;;;;;;5042352;28;20179;-72
2021/07/23 08:35:25;;;;;;;2.50;2.00;;;22.90;68.10;;;;;;5044069;28;20176;-72
2021/07/23 08:37:53;;;;;;;1.80;1.70;;;23.00;69.20;;;;;;5076586;28;20180;-72
2021/07/23 08:40:22;;;;;;;1.80;1.73;;;23.10;68.40;;;;;;5039838;28;20179;-72
2021/07/23 08:42:51;;;;;;;1.85;1.73;;;23.20;68.90;;;;;;5044239;28;20211;-72
2021/07/23 08:45:22;;;;;;;1.80;1.70;;;23.30;69.30;;;;;;5077958;28;20249;-73
2021/07/23 08:47:52;;;;;;;1.70;1.60;;;23.40;67.80;;;;;;5047712;28;20199;-72
2021/07/23 08:50:24;;;;;;;2.15;2.05;;;23.50;67.80;;;;;;5042674;28;20211;-74
2021/07/23 08:52:55;;;;;;;2.08;1.88;;;23.60;68.10;;;;;;5045403;28;20260;-73
2021/07/23 08:55:32;;;;;;;1.75;1.75;;;23.80;67.40;;;;;;5049350;28;20179;-73
2021/07/23 08:58:04;;;;;;;2.00;1.90;;;23.90;66.50;;;;;;5047154;28;20183;-73
2021/07/23 09:00:35;;;;;;;3.17;1.67;;;24.00;66.90;;;;;;5046044;28;20598;-72
2021/07/23 09:03:11;;;;;;;1.67;1.60;;;24.10;65.20;;;;;;5045240;28;20223;-73
2021/07/23 09:05:46;;;;;;;3.40;2.00;;;24.20;65.80;;;;;;5045946;28;20179;-72
2021/07/23 09:08:22;;;;;;;2.25;1.90;;;24.30;66.50;;;;;;5047920;28;20229;-74
2021/07/23 09:11:09;;;;;;;1.90;1.90;;;24.40;62.20;;;;;;5056189;28;20179;-73
2021/07/23 09:13:43;;;;;;;1.95;1.85;;;24.50;63.90;;;;;;5042300;28;20207;-72
2021/07/23 09:16:32;;;;;;;1.50;1.50;;;24.60;63.50;;;;;;5049471;28;20585;-73
2021/07/23 09:19:19;;;;;;;2.33;2.15;;;24.70;62.50;;;;;;5046895;28;20682;-73
2021/07/23 09:22:21;;;;;;;1.88;1.80;;;24.90;62.80;;;;;;5046856;28;20175;-73
2021/07/23 09:25:13;;;;;;;2.33;2.05;;;25.10;60.00;;;;;;5062748;28;20249;-74
2021/07/23 09:28:05;;;;;;;2.17;1.98;;;25.20;60.30;;;;;;5048273;28;20986;-72
2021/07/23 09:31:04;;;;;;;1.80;1.70;;;25.40;61.10;;;;;;5043189;28;20278;-73
2021/07/23 09:33:51;;;;;;;1.98;1.90;;;25.60;60.80;;;;;;5080139;28;20199;-72
2021/07/23 09:36:42;;;;;;;2.55;2.20;;;25.90;62.20;;;;;;5045723;28;20199;-72
2021/07/23 09:39:30;;;;;;;3.35;1.80;;;26.20;61.50;;;;;;5042922;28;20216;-72
2021/07/23 09:42:33;;;;;;;1.90;1.75;;;26.50;60.30;;;;;;5042785;28;20199;-72
2021/07/23 09:45:37;;;;;;;1.85;1.73;;;26.80;60.00;;;;;;5076034;28;20245;-72
2021/07/23 09:49:04;;;;;;;1.92;1.92;;;27.10;56.90;;;;;;5033752;28;20204;-72
2021/07/23 09:52:02;;;;;;;1.85;1.85;;;27.40;57.40;;;;;;5024161;28;20188;-71
2021/07/23 09:54:48;;;;;;;2.10;2.00;;;27.70;57.30;;;;;;5023497;28;20192;-73
2021/07/23 09:57:16;;;;;;;4.30;1.95;;;27.90;56.90;;;;;;5030824;28;20405;-73
2021/07/23 09:59:49;;;;;;;1.92;1.83;;;28.10;55.80;;;;;;5027536;28;20196;-73
2021/07/23 10:02:22;;;;;;;2.30;2.20;;;28.20;54.20;;;;;;5022493;28;20208;-73
2021/07/23 10:05:00;;;;;;;2.00;1.90;;;28.30;54.50;;;;;;5021631;28;20218;-73
2021/07/23 10:07:29;;;;;;;2.08;2.08;;;28.30;56.80;;;;;;5024341;28;20685;-73
2021/07/23 10:09:57;;;;;;;1.73;1.73;;;28.50;55.10;;;;;;5022550;28;20203;-72
2021/07/23 10:12:24;;;;;;;3.25;2.10;;;28.70;53.90;;;;;;5020221;28;20184;-73
2021/07/23 10:14:52;;;;;;;3.15;2.13;;;28.90;53.70;;;;;;5022047;28;20208;-73
2021/07/23 10:17:19;;;;;;;2.83;2.30;;;29.20;54.70;;;;;;5022394;28;20195;-72
2021/07/23 10:19:45;;;;;;;3.58;1.80;;;29.60;54.70;;;;;;5020831;28;20556;-73
2021/07/23 10:22:14;;;;;;;2.08;2.03;;;29.90;53.00;;;;;;5020136;28;20347;-72
2021/07/23 10:24:41;;;;;;;3.08;2.35;;;30.30;53.10;;;;;;5018907;28;20219;-73
2021/07/23 10:27:09;;;;;;;2.15;2.05;;;30.70;53.90;;;;;;5021995;28;20265;-72
2021/07/23 10:29:49;;;;;;;2.65;2.50;;;31.30;50.10;;;;;;5021923;28;20298;-72
2021/07/23 10:32:24;;;;;;;2.15;2.08;;;31.90;50.50;;;;;;5025863;28;20191;-72
2021/07/23 10:34:50;;;;;;;2.17;2.08;;;32.50;49.30;;;;;;5044517;28;20187;-72
2021/07/23 10:37:31;;;;;;;2.70;2.60;;;33.20;49.70;;;;;;5043528;28;20245;-71
2021/07/23 10:40:08;;;;;;;1.95;1.85;;;34.00;47.50;;;;;;5037736;28;20564;-72
2021/07/23 10:42:42;;;;;;;2.45;2.45;;;34.70;46.00;;;;;;5034715;28;20662;-72
2021/07/23 10:45:08;;;;;;;2.72;2.60;;;35.30;48.10;;;;;;5025323;28;20277;-72
2021/07/23 10:47:39;;;;;;;3.50;2.20;;;35.80;47.20;;;;;;5036563;28;20258;-72
2021/07/23 10:50:06;;;;;;;2.72;2.17;;;36.20;45.30;;;;;;5045507;28;20175;-72
2021/07/23 10:52:36;;;;;;;2.50;2.40;;;36.40;47.80;;;;;;5045504;28;20648;-72
2021/07/23 10:55:10;;;;;;;2.08;2.08;;;36.20;44.70;;;;;;5036198;28;20253;-74
2021/07/23 10:57:36;;;;;;;6.85;2.38;;;35.80;45.30;;;;;;5044859;28;20206;-72
2021/07/23 11:00:04;;;;;;;2.00;2.00;;;35.60;47.60;;;;;;5044674;28;20191;-72
2021/07/23 11:02:29;;;;;;;2.13;2.13;;;35.60;46.70;;;;;;5039295;28;20207;-72
2021/07/23 11:05:06;;;;;;;3.45;2.65;;;35.60;45.90;;;;;;5043702;28;20182;-72
2021/07/23 11:07:32;;;;;;;2.80;2.60;;;35.80;45.30;;;;;;5046676;28;20190;-72
2021/07/23 11:09:59;;;;;;;2.35;2.03;;;35.90;45.90;;;;;;5048043;28;20187;-72
2021/07/23 11:12:31;;;;;;;2.10;2.10;;;35.90;46.70;;;;;;5048217;28;20183;-72
2021/07/23 11:15:02;;;;;;;2.30;2.20;;;36.20;46.60;;;;;;5046175;28;20199;-72
2021/07/23 11:17:28;;;;;;;2.60;2.50;;;36.60;46.60;;;;;;5041845;28;20680;-73
2021/07/23 11:19:58;;;;;;;6.18;2.70;;;36.90;44.00;;;;;;5046425;28;20179;-72
2021/07/23 11:22:26;;;;;;;2.67;2.58;;;37.20;44.90;;;;;;5070426;28;20211;-72
2021/07/23 11:24:56;;;;;;;2.28;2.17;;;37.60;45.20;;;;;;5046629;28;20703;-72
2021/07/23 11:27:33;;;;;;;2.25;2.25;;;37.70;45.50;;;;;;5042015;28;20274;-73
2021/07/23 11:29:59;;;;;;;3.25;2.55;;;37.30;44.70;;;;;;5038694;28;20182;-73
2021/07/23 11:32:28;;;;;;;2.72;2.63;;;36.70;45.50;;;;;;5045673;28;20632;-73
2021/07/23 11:35:04;;;;;;;2.58;2.58;;;36.10;46.00;;;;;;5047283;28;20171;-73
2021/07/23 11:37:29;;;;;;;2.45;2.45;;;35.70;45.00;;;;;;5044266;28;20209;-73
2021/07/23 11:39:57;;;;;;;2.58;2.53;;;35.70;45.40;;;;;;5046219;28;20206;-73
2021/07/23 11:42:25;;;;;;;2.45;2.35;;;35.70;47.70;;;;;;5041731;28;20263;-74
2021/07/23 11:44:53;;;;;;;2.25;2.17;;;35.50;47.30;;;;;;5043319;28;20813;-74
2021/07/23 11:47:32;;;;;;;2.53;2.42;;;35.10;47.60;;;;;;5045319;28;20179;-74
2021/07/23 11:50:00;;;;;;;2.75;2.67;;;34.70;46.80;;;;;;5043877;28;20187;-74
2021/07/23 11:52:27;;;;;;;2.10;2.10;;;34.60;48.20;;;;;;5046095;28;20182;-74
2021/07/23 11:54:58;;;;;;;2.38;2.28;;;34.80;47.90;;;;;;5044756;28;20231;-74
2021/07/23 11:57:24;;;;;;;2.47;2.38;;;35.20;48.60;;;;;;5043422;28;20189;-74
2021/07/23 11:59:49;;;;;;;2.30;2.20;;;35.40;48.60;;;;;;5045856;28;20181;-72
2021/07/23 12:02:15;;;;;;;2.22;2.22;;;35.50;47.30;;;;;;5041445;28;20182;-72
2021/07/23 12:04:41;;;;;;;2.55;2.45;;;35.90;47.40;;;;;;5044052;28;20183;-72
2021/07/23 12:07:07;;;;;;;2.65;2.55;;;36.50;46.00;;;;;;5042740;28;20268;-73
2021/07/23 12:09:35;;;;;;;1.95;1.95;;;37.10;45.30;;;;;;5045629;28;20269;-72
2021/07/23 12:12:01;;;;;;;2.03;2.03;;;37.80;46.40;;;;;;5041684;28;20215;-71
2021/07/23 12:14:27;;;;;;;2.10;2.00;;;38.50;44.90;;;;;;5045756;28;20194;-71
2021/07/23 12:16:54;;;;;;;3.90;2.20;;;39.30;44.80;;;;;;5044712;28;20174;-70
2021/07/23 12:19:20;;;;;;;1.75;1.75;;;39.90;42.80;;;;;;5043074;28;20186;-71
2021/07/23 12:21:46;;;;;;;2.28;2.05;;;40.50;42.80;;;;;;5047804;28;20262;-71
2021/07/23 12:24:12;;;;;;;2.08;2.08;;;41.10;43.30;;;;;;5046282;28;20256;-71
2021/07/23 12:26:38;;;;;;;2.25;2.15;;;41.50;43.00;;;;;;5045198;28;20579;-70
2021/07/23 12:29:05;;;;;;;1.92;1.92;;;41.90;41.80;;;;;;5048066;28;20650;-71
2021/07/23 12:31:31;;;;;;;2.58;2.47;;;42.30;41.50;;;;;;5046951;28;20179;-70
2021/07/23 12:34:08;;;;;;;2.38;2.25;;;42.60;42.10;;;;;;5047563;28;20183;-70
2021/07/23 12:36:46;;;;;;;2.38;2.28;;;42.80;40.30;;;;;;5046285;28;20226;-70
2021/07/23 12:39:13;;;;;;;2.42;2.33;;;42.80;38.70;;;;;;5042468;28;20281;-70
2021/07/23 12:41:40;;;;;;;2.00;2.00;;;43.10;40.20;;;;;;5042134;28;20215;-72
2021/07/23 12:44:14;;;;;;;2.30;2.30;;;43.20;42.10;;;;;;5042122;28;20305;-72
2021/07/23 12:46:42;;;;;;;2.30;2.30;;;43.00;40.80;;;;;;5045775;28;20183;-70
2021/07/23 12:49:38;;;;;;;2.05;2.05;;;42.40;41.30;;;;;;5042000;28;20530;-70
2021/07/23 12:52:04;;;;;;;2.38;2.38;;;41.50;38.20;;;;;;5045581;28;20175;-71
2021/07/23 12:54:38;;;;;;;1.90;1.90;;;40.90;42.90;;;;;;5042571;28;20191;-70